sensor_id;sensor_type;location;lat;lon;timestamp;pressure;altitude;pressure_sealevel;temperature
49557;BMP280;35462;45.048;7.666;2024-03-23T01:03:43;98728.63;;;13.38
49557;BMP280;35462;45.048;7.666;2024-03-23T01:18:46;98724.72;;;13.21
49557;BMP280;35462;45.048;7.666;2024-03-23T01:33:49;98721.97;;;13.04
49557;BMP280;35462;45.048;7.666;2024-03-23T01:48:52;98708.44;;;12.98
49557;BMP280;35462;45.048;7.666;2024-03-23T02:03:54;98699.63;;;12.89
49557;BMP280;35462;45.048;7.666;2024-03-23T02:18:57;98674.09;;;12.79
49557;BMP280;35462;45.048;7.666;2024-03-23T02:34:00;98666.78;;;12.70
49557;BMP280;35462;45.048;7.666;2024-03-23T02:49:02;98648.44;;;12.60
49557;BMP280;35462;45.048;7.666;2024-03-23T03:04:06;98637.75;;;12.51
49557;BMP280;35462;45.048;7.666;2024-03-23T03:19:08;98635.59;;;12.37
49557;BMP280;35462;45.048;7.666;2024-03-23T03:34:12;98626.34;;;12.29
49557;BMP280;35462;45.048;7.666;2024-03-23T03:49:15;98616.38;;;12.21
49557;BMP280;35462;45.048;7.666;2024-03-23T04:04:18;98605.63;;;12.12
49557;BMP280;35462;45.048;7.666;2024-03-23T04:19:20;98601.91;;;12.09
49557;BMP280;35462;45.048;7.666;2024-03-23T04:34:23;98584.16;;;11.94
49557;BMP280;35462;45.048;7.666;2024-03-23T04:49:26;98583.69;;;11.86
49557;BMP280;35462;45.048;7.666;2024-03-23T05:04:29;98588.72;;;11.72
49557;BMP280;35462;45.048;7.666;2024-03-23T05:19:31;98570.47;;;11.49
49557;BMP280;35462;45.048;7.666;2024-03-23T05:34:34;98532.34;;;11.52
49557;BMP280;35462;45.048;7.666;2024-03-23T05:49:37;98525.31;;;11.88
49557;BMP280;35462;45.048;7.666;2024-03-23T06:04:40;98511.75;;;12.25
49557;BMP280;35462;45.048;7.666;2024-03-23T06:19:42;98521.94;;;13.06
49557;BMP280;35462;45.048;7.666;2024-03-23T06:34:45;98507.78;;;13.77
49557;BMP280;35462;45.048;7.666;2024-03-23T06:49:47;98510.22;;;13.66
49557;BMP280;35462;45.048;7.666;2024-03-23T07:04:50;98514.19;;;13.79
49557;BMP280;35462;45.048;7.666;2024-03-23T07:19:53;98529.03;;;13.89
49557;BMP280;35462;45.048;7.666;2024-03-23T07:34:55;98482.59;;;16.18
49557;BMP280;35462;45.048;7.666;2024-03-23T07:49:58;98463.97;;;18.76
49557;BMP280;35462;45.048;7.666;2024-03-23T08:05:01;98457.97;;;17.86
49557;BMP280;35462;45.048;7.666;2024-03-23T08:20:05;98450.63;;;17.25
49557;BMP280;35462;45.048;7.666;2024-03-23T08:35:08;98452.00;;;19.47
49557;BMP280;35462;45.048;7.666;2024-03-23T08:50:11;98445.69;;;21.04
49557;BMP280;35462;45.048;7.666;2024-03-23T09:05:14;98420.28;;;21.41
49557;BMP280;35462;45.048;7.666;2024-03-23T09:20:17;98394.06;;;20.32
49557;BMP280;35462;45.048;7.666;2024-03-23T09:35:20;98382.94;;;19.96
49557;BMP280;35462;45.048;7.666;2024-03-23T09:50:23;98361.34;;;19.90
49557;BMP280;35462;45.048;7.666;2024-03-23T10:05:25;98329.69;;;19.91
49557;BMP280;35462;45.048;7.666;2024-03-23T10:20:29;98309.38;;;19.68
49557;BMP280;35462;45.048;7.666;2024-03-23T10:35:32;98247.72;;;19.77
49557;BMP280;35462;45.048;7.666;2024-03-23T10:50:35;98233.78;;;19.68
49557;BMP280;35462;45.048;7.666;2024-03-23T11:05:38;98189.78;;;19.38
49557;BMP280;35462;45.048;7.666;2024-03-23T11:20:40;98187.03;;;19.44
49557;BMP280;35462;45.048;7.666;2024-03-23T11:35:43;98153.47;;;19.39
49557;BMP280;35462;45.048;7.666;2024-03-23T11:50:47;98126.34;;;19.15
49557;BMP280;35462;45.048;7.666;2024-03-23T12:05:51;98091.09;;;19.02
49557;BMP280;35462;45.048;7.666;2024-03-23T12:20:55;98072.22;;;19.02
49557;BMP280;35462;45.048;7.666;2024-03-23T12:35:58;98036.19;;;19.05
49557;BMP280;35462;45.048;7.666;2024-03-23T12:51:00;98026.59;;;19.04
49557;BMP280;35462;45.048;7.666;2024-03-23T13:06:03;98016.97;;;19.14
49557;BMP280;35462;45.048;7.666;2024-03-23T13:21:10;98062.38;;;19.10
49557;BMP280;35462;45.048;7.666;2024-03-23T13:36:12;98037.25;;;19.26
49557;BMP280;35462;45.048;7.666;2024-03-23T13:51:15;98009.97;;;19.35
49557;BMP280;35462;45.048;7.666;2024-03-23T14:06:26;98022.47;;;19.38
49557;BMP280;35462;45.048;7.666;2024-03-23T14:21:29;98022.72;;;19.35
49557;BMP280;35462;45.048;7.666;2024-03-23T14:36:32;98003.59;;;19.33
49557;BMP280;35462;45.048;7.666;2024-03-23T14:51:34;97988.03;;;19.20
49557;BMP280;35462;45.048;7.666;2024-03-23T15:06:37;97983.69;;;19.06
49557;BMP280;35462;45.048;7.666;2024-03-23T15:21:40;97960.00;;;18.88
49557;BMP280;35462;45.048;7.666;2024-03-23T15:36:43;97951.06;;;18.70
49557;BMP280;35462;45.048;7.666;2024-03-23T15:51:46;97926.44;;;18.44
49557;BMP280;35462;45.048;7.666;2024-03-23T16:06:50;97914.53;;;18.23
49557;BMP280;35462;45.048;7.666;2024-03-23T16:21:53;97914.13;;;17.97
49557;BMP280;35462;45.048;7.666;2024-03-23T16:36:57;97923.97;;;17.73
49557;BMP280;35462;45.048;7.666;2024-03-23T16:52:00;97937.47;;;17.46
49557;BMP280;35462;45.048;7.666;2024-03-23T17:07:03;97917.88;;;17.18
49557;BMP280;35462;45.048;7.666;2024-03-23T17:22:06;97917.13;;;16.84
49557;BMP280;35462;45.048;7.666;2024-03-23T17:37:09;97952.69;;;16.52
49557;BMP280;35462;45.048;7.666;2024-03-23T17:52:11;97959.88;;;16.24
49557;BMP280;35462;45.048;7.666;2024-03-23T18:07:14;97985.00;;;15.91
49557;BMP280;35462;45.048;7.666;2024-03-23T18:22:17;98018.66;;;15.61
49557;BMP280;35462;45.048;7.666;2024-03-23T18:37:20;98049.34;;;15.34
49557;BMP280;35462;45.048;7.666;2024-03-23T18:52:23;98057.63;;;15.11
49557;BMP280;35462;45.048;7.666;2024-03-23T19:07:26;98069.03;;;14.86
49557;BMP280;35462;45.048;7.666;2024-03-23T19:22:28;98089.78;;;14.57
49557;BMP280;35462;45.048;7.666;2024-03-23T19:37:31;98136.31;;;14.31
49557;BMP280;35462;45.048;7.666;2024-03-23T19:52:34;98138.00;;;14.14
49557;BMP280;35462;45.048;7.666;2024-03-23T20:07:37;98145.91;;;13.94
49557;BMP280;35462;45.048;7.666;2024-03-23T20:22:40;98181.47;;;13.71
49557;BMP280;35462;45.048;7.666;2024-03-23T20:37:42;98196.91;;;13.20
49557;BMP280;35462;45.048;7.666;2024-03-23T20:52:45;98200.38;;;13.35
49557;BMP280;35462;45.048;7.666;2024-03-23T21:07:48;98194.50;;;13.22
49557;BMP280;35462;45.048;7.666;2024-03-23T21:22:51;98208.50;;;13.08
49557;BMP280;35462;45.048;7.666;2024-03-23T21:37:54;98195.53;;;12.93
49557;BMP280;35462;45.048;7.666;2024-03-23T21:52:57;98178.81;;;12.83
49557;BMP280;35462;45.048;7.666;2024-03-23T22:07:59;98191.09;;;12.81
49557;BMP280;35462;45.048;7.666;2024-03-23T22:23:02;98181.97;;;12.64
49557;BMP280;35462;45.048;7.666;2024-03-23T22:38:05;98167.44;;;12.56
49557;BMP280;35462;45.048;7.666;2024-03-23T22:53:08;98160.34;;;12.53
49557;BMP280;35462;45.048;7.666;2024-03-23T23:08:11;98153.38;;;12.37
49557;BMP280;35462;45.048;7.666;2024-03-23T23:23:14;98162.00;;;12.32
49557;BMP280;35462;45.048;7.666;2024-03-23T23:38:17;98185.28;;;12.23
49557;BMP280;35462;45.048;7.666;2024-03-23T23:53:20;98198.63;;;12.14
